Time;durP1;ratioP1;P1;durP2;ratioP2;P2;SDS_P1;SDS_P2;PMS_P1;PMS_P2;Temp;Humidity;BMP_temperature;BMP_pressure;BME280_temperature;BME280_humidity;BME280_pressure;Samples;Min_cycle;Max_cycle;Signal;HPM_P1;HPM_P2
2022/02/07 00:01:44;;;;;;;0.10;0.10;;;3.10;99.90;;;;;;4951476;28;20023;-73
2022/02/07 00:04:13;;;;;;;0.25;0.25;;;3.00;99.90;;;;;;4938553;28;20167;-73
2022/02/07 00:06:38;;;;;;;0.55;0.20;;;3.00;99.90;;;;;;4950603;28;20023;-74
2022/02/07 00:09:04;;;;;;;0.20;0.20;;;3.00;99.90;;;;;;4948770;28;20035;-74
2022/02/07 00:11:29;;;;;;;0.35;0.25;;;3.00;99.90;;;;;;4944937;28;20112;-74
2022/02/07 00:13:55;;;;;;;2.83;0.30;;;3.00;99.90;;;;;;4955871;28;20082;-73
2022/02/07 00:16:21;;;;;;;0.25;0.25;;;3.00;99.90;;;;;;4959119;28;20077;-75
2022/02/07 00:18:46;;;;;;;0.20;0.20;;;3.10;99.90;;;;;;4950700;28;20028;-72
2022/02/07 00:21:12;;;;;;;0.15;0.10;;;3.10;99.90;;;;;;4957762;28;20022;-73
2022/02/07 00:23:37;;;;;;;0.20;0.20;;;3.10;99.90;;;;;;4948549;28;20403;-73
2022/02/07 00:26:03;;;;;;;0.32;0.32;;;3.10;99.90;;;;;;4957792;28;20094;-74
2022/02/07 00:28:29;;;;;;;0.25;0.25;;;3.20;99.90;;;;;;4953427;28;20100;-73
2022/02/07 00:30:54;;;;;;;0.20;0.20;;;3.30;99.90;;;;;;4951231;28;20035;-74
2022/02/07 00:33:20;;;;;;;1.25;0.35;;;3.50;99.90;;;;;;4948095;28;20024;-74
2022/02/07 00:35:46;;;;;;;0.35;0.30;;;3.70;99.90;;;;;;4941547;28;20034;-74
2022/02/07 00:38:17;;;;;;;0.20;0.20;;;3.70;99.90;;;;;;4949390;28;20030;-76
2022/02/07 00:43:40;;;;;;;0.20;0.20;;;3.70;99.90;;;;;;4935387;28;20416;-74
2022/02/07 00:46:11;;;;;;;0.20;0.20;;;3.70;99.90;;;;;;4952211;28;20033;-73
2022/02/07 00:48:38;;;;;;;0.30;0.30;;;3.70;99.90;;;;;;4946038;28;20101;-73
2022/02/07 00:51:05;;;;;;;0.20;0.20;;;3.70;99.90;;;;;;4951325;28;20042;-73
2022/02/07 00:53:33;;;;;;;0.30;0.30;;;3.60;99.90;;;;;;4941969;28;20078;-73
2022/02/07 00:55:59;;;;;;;0.50;0.25;;;3.60;99.90;;;;;;4956539;28;20114;-73
2022/02/07 00:58:24;;;;;;;1.20;0.30;;;3.60;99.90;;;;;;4962738;28;20102;-74
2022/02/07 01:00:54;;;;;;;0.25;0.25;;;3.60;99.90;;;;;;4944726;28;20452;-74
2022/02/07 01:03:21;;;;;;;1.45;0.30;;;3.50;99.90;;;;;;4946989;28;20054;-74
2022/02/07 01:05:47;;;;;;;0.30;0.28;;;3.50;99.90;;;;;;4951690;28;20586;-73
2022/02/07 01:08:13;;;;;;;0.35;0.30;;;3.50;99.90;;;;;;4964734;28;20031;-74
2022/02/07 01:15:49;;;;;;;1.67;0.40;;;3.50;99.90;;;;;;4952932;28;20015;-74
2022/02/07 01:18:44;;;;;;;0.20;0.20;;;3.50;99.90;;;;;;4948074;28;20019;-74
2022/02/07 01:56:25;;;;;;;0.63;0.30;;;3.90;99.90;;;;;;4955584;28;20075;-81
2022/02/07 01:58:51;;;;;;;0.65;0.40;;;3.90;99.90;;;;;;4950759;29;20024;-81
2022/02/07 02:01:17;;;;;;;0.90;0.30;;;4.00;99.90;;;;;;4955216;29;20039;-80
2022/02/07 02:03:42;;;;;;;0.28;0.20;;;4.00;99.90;;;;;;4953332;29;20023;-81
2022/02/07 02:06:10;;;;;;;0.30;0.25;;;4.00;99.90;;;;;;4956311;29;20037;-82
2022/02/07 02:08:36;;;;;;;1.20;0.20;;;4.00;99.90;;;;;;4954846;29;20255;-82
2022/02/07 02:11:02;;;;;;;0.70;0.40;;;4.30;99.90;;;;;;4954787;29;20093;-82
2022/02/07 02:37:59;;;;;;;2.20;0.40;;;4.40;99.90;;;;;;4932189;29;20027;-81
2022/02/07 02:45:41;;;;;;;0.95;0.40;;;4.40;99.90;;;;;;4951749;29;20042;-83
2022/02/07 02:48:15;;;;;;;1.75;0.50;;;4.50;99.90;;;;;;4953542;29;20032;-81
2022/02/07 02:50:42;;;;;;;0.40;0.40;;;4.40;99.90;;;;;;4952645;29;20127;-80
2022/02/07 02:53:14;;;;;;;0.65;0.40;;;4.10;99.90;;;;;;4956102;29;20035;-79
2022/02/07 02:55:42;;;;;;;0.70;0.40;;;3.80;99.90;;;;;;4956190;29;20036;-81
2022/02/07 02:58:11;;;;;;;2.13;0.50;;;3.60;99.90;;;;;;4957224;29;20035;-79
2022/02/07 03:00:39;;;;;;;0.75;0.50;;;3.60;99.90;;;;;;4957195;29;20016;-80
2022/02/07 03:03:04;;;;;;;2.80;0.60;;;3.50;99.90;;;;;;4956328;29;20091;-78
2022/02/07 03:05:31;;;;;;;0.60;0.28;;;3.50;99.90;;;;;;4955515;29;20031;-80
2022/02/07 03:07:57;;;;;;;0.93;0.55;;;3.50;99.90;;;;;;4953229;29;20042;-79
2022/02/07 03:10:55;;;;;;;0.93;0.50;;;3.50;99.90;;;;;;4955306;29;20087;-81
2022/02/07 03:18:31;;;;;;;1.10;1.00;;;3.60;99.90;;;;;;4957240;29;20035;-80
2022/02/07 03:20:57;;;;;;;2.80;0.47;;;3.70;99.90;;;;;;4957116;29;20039;-80
2022/02/07 03:23:23;;;;;;;2.10;0.70;;;3.70;99.90;;;;;;4958652;29;20067;-79
2022/02/07 03:25:49;;;;;;;0.60;0.50;;;3.60;99.90;;;;;;4959146;28;20190;-77
2022/02/07 03:28:18;;;;;;;2.08;0.60;;;3.70;99.90;;;;;;4956661;28;20016;-80
2022/02/07 03:30:44;;;;;;;1.50;0.60;;;3.70;99.90;;;;;;4960437;28;20016;-78
2022/02/07 03:33:10;;;;;;;4.57;0.82;;;3.70;99.90;;;;;;4960056;28;20040;-81
2022/02/07 03:35:36;;;;;;;3.72;0.80;;;3.60;99.90;;;;;;4960648;28;20083;-80
2022/02/07 03:38:03;;;;;;;0.80;0.50;;;3.70;99.90;;;;;;4960073;28;20039;-79
2022/02/07 03:40:29;;;;;;;0.82;0.43;;;3.80;99.90;;;;;;4956979;28;20480;-82
2022/02/07 03:42:54;;;;;;;0.30;0.20;;;3.80;99.90;;;;;;4957374;29;20046;-79
2022/02/07 03:45:20;;;;;;;0.38;0.30;;;2.90;99.90;;;;;;4947042;29;20107;-76
2022/02/07 03:47:45;;;;;;;0.38;0.30;;;2.50;99.90;;;;;;4943337;29;20031;-74
2022/02/07 03:50:11;;;;;;;0.30;0.30;;;2.40;99.90;;;;;;4942500;29;20111;-74
2022/02/07 03:52:38;;;;;;;1.48;0.30;;;2.40;99.90;;;;;;4938261;29;20099;-75
2022/02/07 03:55:04;;;;;;;0.38;0.30;;;2.30;99.90;;;;;;4941798;29;20032;-74
2022/02/07 03:57:29;;;;;;;0.40;0.40;;;2.30;99.90;;;;;;4937892;29;20032;-75
2022/02/07 03:59:55;;;;;;;0.40;0.30;;;2.20;99.90;;;;;;4939068;29;20123;-74
2022/02/07 04:02:21;;;;;;;0.30;0.30;;;2.20;99.90;;;;;;4940682;29;20035;-75
2022/02/07 04:04:53;;;;;;;0.30;0.30;;;2.20;99.90;;;;;;4937565;29;20036;-75
2022/02/07 04:07:19;;;;;;;0.30;0.30;;;2.20;99.90;;;;;;4936619;29;20036;-75
2022/02/07 04:09:49;;;;;;;1.77;0.40;;;2.20;99.90;;;;;;4937119;29;20400;-73
2022/02/07 04:12:20;;;;;;;1.85;0.52;;;2.20;99.90;;;;;;4933797;29;20044;-76
2022/02/07 04:14:46;;;;;;;0.85;0.30;;;2.10;99.90;;;;;;4935804;29;20032;-74
2022/02/07 04:17:17;;;;;;;1.55;0.30;;;2.20;99.90;;;;;;4937857;29;20403;-75
2022/02/07 04:19:43;;;;;;;0.40;0.30;;;2.20;99.90;;;;;;4936471;29;20032;-76
2022/02/07 04:22:09;;;;;;;0.40;0.40;;;2.20;99.90;;;;;;4934708;29;20038;-74
2022/02/07 04:24:35;;;;;;;0.30;0.30;;;2.20;99.90;;;;;;4935778;29;20030;-74
2022/02/07 04:27:01;;;;;;;0.47;0.40;;;2.10;99.90;;;;;;4935948;29;20035;-75
2022/02/07 04:29:26;;;;;;;2.47;0.40;;;2.20;99.90;;;;;;4933741;29;20075;-74
2022/02/07 04:31:52;;;;;;;2.05;0.80;;;2.10;99.90;;;;;;4935298;29;20055;-74
2022/02/07 04:34:18;;;;;;;1.75;0.40;;;2.20;99.90;;;;;;4935125;29;20027;-74
2022/02/07 04:36:47;;;;;;;2.25;0.60;;;2.30;99.90;;;;;;4934919;29;20031;-75
2022/02/07 04:39:13;;;;;;;0.70;0.43;;;2.20;99.90;;;;;;4935017;29;20038;-75
2022/02/07 04:41:42;;;;;;;4.80;0.45;;;2.30;99.90;;;;;;4935260;29;20028;-74
2022/02/07 04:44:12;;;;;;;2.80;0.57;;;2.30;99.90;;;;;;4935010;29;20034;-75
2022/02/07 04:49:26;;;;;;;0.75;0.60;;;2.30;99.90;;;;;;4937572;29;20050;-73
2022/02/07 05:02:28;;;;;;;4.07;0.70;;;2.30;99.90;;;;;;4919750;29;20444;-75
2022/02/07 05:15:51;;;;;;;2.08;0.68;;;2.30;99.90;;;;;;4934300;29;20031;-76
2022/02/07 05:18:18;;;;;;;3.63;0.70;;;2.40;99.90;;;;;;4931171;29;20035;-74
2022/02/07 05:20:44;;;;;;;6.97;0.73;;;2.40;99.90;;;;;;4934445;29;20031;-76
2022/02/07 05:23:09;;;;;;;4.40;0.70;;;2.40;99.90;;;;;;4934545;29;20408;-75
2022/02/07 05:25:35;;;;;;;4.55;0.70;;;2.30;99.90;;;;;;4934425;29;20136;-75
2022/02/07 05:28:00;;;;;;;5.28;0.90;;;2.40;99.90;;;;;;4935064;29;20056;-75
2022/02/07 05:30:26;;;;;;;3.83;0.80;;;2.30;99.90;;;;;;4929230;29;20526;-75
2022/02/07 05:32:51;;;;;;;6.70;0.77;;;2.30;99.90;;;;;;4937296;29;20043;-75
2022/02/07 05:35:17;;;;;;;5.20;0.98;;;2.30;99.90;;;;;;4937241;29;20024;-75
2022/02/07 05:37:44;;;;;;;3.25;0.80;;;2.30;99.90;;;;;;4938493;29;20038;-74
2022/02/07 05:40:17;;;;;;;2.72;2.00;;;2.40;99.90;;;;;;4938139;29;20020;-75
2022/02/07 05:42:43;;;;;;;2.53;0.80;;;2.40;99.90;;;;;;4938760;29;20492;-74
2022/02/07 05:45:09;;;;;;;5.05;1.45;;;2.40;99.90;;;;;;4938472;29;20071;-78
2022/02/07 05:47:36;;;;;;;4.82;0.73;;;2.40;99.90;;;;;;4937797;29;20564;-75
2022/02/07 05:50:03;;;;;;;6.43;1.20;;;2.50;99.90;;;;;;4939876;29;20024;-76
2022/02/07 05:52:28;;;;;;;2.85;0.88;;;2.40;99.90;;;;;;4937384;29;20031;-78
2022/02/07 05:54:54;;;;;;;3.08;0.90;;;2.40;99.90;;;;;;4937790;29;20507;-77
2022/02/07 05:57:19;;;;;;;5.82;1.20;;;2.40;99.90;;;;;;4937007;29;20020;-75
2022/02/07 05:59:45;;;;;;;5.70;0.93;;;2.40;99.90;;;;;;4938501;29;20028;-75
2022/02/07 06:02:11;;;;;;;8.82;2.13;;;2.50;99.90;;;;;;4931796;29;20166;-76
2022/02/07 06:04:36;;;;;;;2.85;1.00;;;2.40;99.90;;;;;;4937962;29;20036;-75
2022/02/07 06:07:02;;;;;;;1.90;0.70;;;2.40;99.90;;;;;;4937538;29;20035;-74
2022/02/07 06:09:27;;;;;;;4.82;1.98;;;2.50;99.90;;;;;;4938122;29;20034;-75
2022/02/07 06:11:53;;;;;;;3.13;0.50;;;2.50;99.90;;;;;;4936678;29;20034;-76
2022/02/07 06:14:19;;;;;;;4.32;0.95;;;2.50;99.90;;;;;;4937881;29;20055;-75
2022/02/07 06:16:45;;;;;;;2.05;1.33;;;2.60;99.90;;;;;;4937807;29;20027;-75
2022/02/07 06:19:10;;;;;;;5.57;0.90;;;2.60;99.90;;;;;;4938355;29;20024;-76
2022/02/07 06:21:36;;;;;;;1.73;0.90;;;2.70;99.90;;;;;;4937294;29;20096;-75
2022/02/07 06:24:02;;;;;;;3.63;0.57;;;2.70;99.90;;;;;;4935820;29;20036;-76
2022/02/07 06:26:31;;;;;;;5.22;1.02;;;2.70;99.90;;;;;;4936879;29;20024;-76
2022/02/07 06:28:58;;;;;;;5.25;0.90;;;2.70;99.90;;;;;;4938330;29;20039;-75
2022/02/07 06:31:25;;;;;;;5.15;2.55;;;2.70;99.90;;;;;;4940126;29;20360;-75
2022/02/07 06:33:51;;;;;;;1.25;0.68;;;2.70;99.90;;;;;;4938962;29;20075;-77
2022/02/07 06:36:18;;;;;;;4.45;0.80;;;2.80;99.90;;;;;;4937117;29;20448;-76
2022/02/07 06:38:43;;;;;;;2.80;0.70;;;2.80;99.90;;;;;;4936312;29;20031;-76
2022/02/07 06:41:09;;;;;;;4.15;0.80;;;2.90;99.90;;;;;;4940985;29;20034;-76
2022/02/07 06:43:35;;;;;;;4.00;1.15;;;2.90;99.90;;;;;;4926069;29;20035;-75
2022/02/07 06:46:00;;;;;;;7.28;1.98;;;2.90;99.90;;;;;;4934661;29;20038;-75
2022/02/07 06:48:26;;;;;;;2.35;0.80;;;2.90;99.90;;;;;;4935470;29;20098;-76
2022/02/07 06:50:52;;;;;;;7.93;0.95;;;2.90;99.90;;;;;;4938870;29;20028;-76
2022/02/07 06:53:18;;;;;;;8.50;1.02;;;2.90;99.90;;;;;;4937570;29;20400;-76
2022/02/07 06:55:44;;;;;;;3.70;0.73;;;2.90;99.90;;;;;;4936814;29;20499;-75
2022/02/07 06:58:10;;;;;;;4.40;0.93;;;2.90;99.90;;;;;;4935540;29;20036;-75
2022/02/07 07:00:36;;;;;;;3.83;0.80;;;2.90;99.90;;;;;;4938119;29;20030;-78
2022/02/07 07:03:01;;;;;;;7.70;1.27;;;2.90;99.90;;;;;;4934932;29;20028;-76
2022/02/07 07:05:28;;;;;;;4.03;1.00;;;3.00;99.90;;;;;;4950230;29;20086;-76
2022/02/07 07:07:54;;;;;;;3.70;0.95;;;3.00;99.90;;;;;;4938090;29;20035;-76
2022/02/07 07:10:20;;;;;;;2.00;0.90;;;3.00;99.90;;;;;;4938160;29;20054;-77
2022/02/07 07:12:49;;;;;;;9.18;1.58;;;3.00;99.90;;;;;;4934765;29;20099;-76
2022/02/07 07:15:27;;;;;;;5.88;1.23;;;3.00;99.90;;;;;;4936477;29;20032;-76
2022/02/07 07:17:53;;;;;;;3.38;1.00;;;3.00;99.90;;;;;;4937576;29;20039;-77
2022/02/07 07:20:18;;;;;;;2.85;0.90;;;3.10;99.90;;;;;;4941454;29;20019;-77
2022/02/07 07:22:44;;;;;;;4.30;0.82;;;3.10;99.90;;;;;;4937134;29;20103;-77
2022/02/07 07:25:15;;;;;;;2.63;0.90;;;3.10;99.90;;;;;;4931154;29;20123;-76
2022/02/07 07:27:56;;;;;;;6.63;2.85;;;3.10;99.90;;;;;;4933985;29;20032;-77
2022/02/07 07:30:28;;;;;;;2.83;0.90;;;3.10;99.90;;;;;;4934592;29;20024;-77
2022/02/07 07:32:59;;;;;;;2.78;0.73;;;3.10;99.90;;;;;;4938412;29;20492;-76
2022/02/07 07:35:25;;;;;;;3.08;0.90;;;3.00;99.90;;;;;;4935690;29;20425;-77
2022/02/07 07:37:51;;;;;;;8.88;1.00;;;3.00;99.90;;;;;;4936821;29;20027;-76
2022/02/07 07:40:16;;;;;;;2.67;1.42;;;3.00;99.90;;;;;;4938324;29;20028;-76
2022/02/07 07:42:50;;;;;;;3.40;1.50;;;3.10;99.90;;;;;;4933304;29;20036;-75
2022/02/07 07:45:18;;;;;;;9.90;2.65;;;3.10;99.90;;;;;;4930449;29;20091;-76
2022/02/07 07:47:46;;;;;;;3.50;1.15;;;3.10;99.90;;;;;;4937007;29;20032;-75
2022/02/07 07:50:19;;;;;;;4.70;0.93;;;3.10;99.90;;;;;;4937583;29;20032;-76
2022/02/07 08:01:16;;;;;;;4.55;1.40;;;3.10;99.90;;;;;;4936406;29;20039;-76
2022/02/07 08:03:48;;;;;;;5.25;1.60;;;3.20;99.90;;;;;;4934002;29;20479;-76
2022/02/07 08:06:22;;;;;;;5.38;1.10;;;3.30;99.90;;;;;;4937758;29;20114;-77
2022/02/07 08:09:01;;;;;;;4.18;1.55;;;3.40;99.90;;;;;;4934945;29;20042;-77
2022/02/07 08:11:27;;;;;;;2.80;1.10;;;3.50;99.90;;;;;;4930218;29;20046;-76
2022/02/07 08:13:54;;;;;;;6.97;1.42;;;3.60;99.90;;;;;;4935410;29;20487;-76
2022/02/07 08:16:20;;;;;;;7.10;1.70;;;3.70;99.90;;;;;;4927069;29;20027;-77
2022/02/07 08:18:45;;;;;;;6.80;1.20;;;3.60;99.90;;;;;;4945679;28;20028;-76
2022/02/07 08:21:11;;;;;;;4.03;1.42;;;3.70;99.90;;;;;;4935256;29;20027;-77
2022/02/07 08:23:39;;;;;;;5.72;1.30;;;3.80;99.90;;;;;;4936514;29;20024;-77
2022/02/07 08:26:06;;;;;;;3.15;0.90;;;3.80;99.90;;;;;;4937997;29;20028;-77
2022/02/07 08:28:32;;;;;;;4.05;0.80;;;3.80;99.90;;;;;;4937657;29;20028;-76
2022/02/07 08:30:58;;;;;;;3.45;1.05;;;3.90;99.90;;;;;;4939182;29;20036;-77
2022/02/07 08:33:24;;;;;;;5.22;1.02;;;4.00;99.90;;;;;;4936557;29;20035;-76
2022/02/07 08:35:49;;;;;;;5.97;1.20;;;4.00;99.90;;;;;;4936373;29;20038;-77
2022/02/07 08:38:16;;;;;;;4.30;1.00;;;4.10;99.90;;;;;;4938408;29;20040;-76
2022/02/07 08:40:42;;;;;;;3.88;1.00;;;4.10;99.90;;;;;;4936436;29;20020;-77
2022/02/07 08:43:07;;;;;;;5.65;1.30;;;4.10;99.90;;;;;;4936060;29;20104;-76
2022/02/07 08:45:34;;;;;;;4.82;0.93;;;4.10;99.90;;;;;;4934821;29;20061;-76
2022/02/07 08:47:59;;;;;;;6.28;1.38;;;4.20;99.90;;;;;;4935474;29;20031;-77
2022/02/07 08:50:29;;;;;;;4.10;1.73;;;4.30;99.90;;;;;;4938028;29;20062;-77
2022/02/07 08:52:57;;;;;;;4.30;0.93;;;4.40;99.90;;;;;;4936781;29;20396;-77
2022/02/07 08:58:06;;;;;;;2.92;1.20;;;4.50;99.90;;;;;;4935869;29;20035;-77
2022/02/07 09:08:25;;;;;;;7.75;1.58;;;4.70;99.90;;;;;;4948047;29;20024;-80
2022/02/07 09:10:52;;;;;;;6.65;1.45;;;4.80;99.90;;;;;;4952904;29;20452;-81
2022/02/07 09:13:19;;;;;;;5.47;1.10;;;4.80;99.90;;;;;;4952924;29;20028;-80
2022/02/07 09:16:46;;;;;;;2.35;0.80;;;4.80;99.90;;;;;;4952454;29;20028;-81
2022/02/07 09:18:41;;;;;;;6.57;1.25;;;4.80;99.90;;;;;;4946657;29;20172;-80
2022/02/07 09:21:08;;;;;;;10.02;2.25;;;4.80;99.90;;;;;;4950195;29;20027;-82
2022/02/07 09:23:35;;;;;;;6.47;1.38;;;4.70;99.90;;;;;;4950706;29;20068;-79
2022/02/07 09:26:01;;;;;;;3.92;1.00;;;4.70;99.90;;;;;;4951303;29;20041;-80
2022/02/07 09:28:27;;;;;;;7.07;1.20;;;4.80;99.90;;;;;;4954095;29;20055;-81
2022/02/07 09:30:53;;;;;;;9.85;1.77;;;4.80;99.90;;;;;;4951912;29;20039;-80
2022/02/07 09:33:21;;;;;;;6.13;1.50;;;4.80;99.90;;;;;;4951245;29;20099;-82
2022/02/07 09:35:49;;;;;;;6.63;1.42;;;4.80;99.90;;;;;;4951834;29;20053;-77
2022/02/07 09:38:16;;;;;;;4.82;1.63;;;4.90;99.90;;;;;;4955806;29;20055;-79
2022/02/07 09:40:48;;;;;;;6.00;2.83;;;4.90;99.90;;;;;;4951227;29;20024;-80
2022/02/07 09:43:14;;;;;;;7.05;1.90;;;4.90;99.90;;;;;;4953990;29;20027;-82
2022/02/07 09:45:43;;;;;;;8.27;2.97;;;5.00;99.90;;;;;;4954033;29;20042;-80
2022/02/07 09:48:09;;;;;;;4.30;1.05;;;5.10;99.90;;;;;;4952686;29;20035;-80
2022/02/07 09:50:36;;;;;;;3.53;1.05;;;5.10;99.90;;;;;;4953002;29;20050;-82
2022/02/07 09:53:02;;;;;;;4.53;1.23;;;5.20;99.90;;;;;;4955425;29;20044;-79
2022/02/07 09:55:28;;;;;;;9.80;1.67;;;5.30;99.90;;;;;;4960030;29;20032;-79
2022/02/07 09:57:54;;;;;;;9.45;1.52;;;5.40;99.90;;;;;;4955610;28;20032;-78
2022/02/07 10:00:30;;;;;;;3.88;0.90;;;5.40;99.90;;;;;;4959212;28;20468;-79
2022/02/07 10:03:24;;;;;;;8.13;2.35;;;5.40;99.90;;;;;;4956348;29;20084;-78
2022/02/07 10:06:13;;;;;;;6.95;0.88;;;5.50;99.90;;;;;;4954976;29;20067;-80
2022/02/07 10:08:58;;;;;;;3.35;1.00;;;5.40;99.90;;;;;;4957192;29;20317;-79
2022/02/07 10:14:08;;;;;;;8.38;1.40;;;5.30;99.90;;;;;;4955009;29;20039;-83
2022/02/07 10:35:40;;;;;;;4.45;1.23;;;6.00;99.90;;;;;;3999886;26;20047;-86
2022/02/07 10:46:11;;;;;;;4.95;1.45;;;6.50;99.90;;;;;;4990658;28;20050;-86
2022/02/07 10:48:51;;;;;;;8.27;1.55;;;6.60;99.90;;;;;;4990352;28;20027;-85
2022/02/07 10:51:17;;;;;;;4.20;1.50;;;6.30;99.90;;;;;;4995356;28;20053;-87
2022/02/07 10:53:53;;;;;;;5.03;1.83;;;6.20;99.90;;;;;;4993375;28;20027;-86
2022/02/07 10:56:22;;;;;;;7.05;2.50;;;6.20;99.90;;;;;;4995097;28;20035;-85
2022/02/07 10:59:24;;;;;;;3.20;1.30;;;6.30;99.90;;;;;;4973043;28;20031;-85
2022/02/07 11:02:42;;;;;;;5.40;1.83;;;6.70;99.90;;;;;;4990642;28;20019;-78
2022/02/07 11:04:58;;;;;;;5.30;1.83;;;6.80;99.90;;;;;;4987298;28;20049;-79
2022/02/07 11:07:27;;;;;;;3.53;1.35;;;7.00;99.90;;;;;;4987984;28;20034;-80
2022/02/07 11:13:08;;;;;;;7.80;1.58;;;6.80;99.90;;;;;;4982716;28;20045;-79
2022/02/07 11:15:33;;;;;;;4.45;1.13;;;6.70;99.90;;;;;;4978497;28;20102;-78
2022/02/07 11:18:08;;;;;;;3.42;1.08;;;6.70;99.90;;;;;;4983894;28;20030;-77
2022/02/07 11:25:57;;;;;;;3.55;1.30;;;6.30;99.90;;;;;;4989432;28;20034;-79
2022/02/07 11:28:25;;;;;;;9.15;1.20;;;6.20;99.90;;;;;;4982883;28;20019;-80
2022/02/07 11:30:56;;;;;;;3.45;0.90;;;6.20;99.90;;;;;;4994378;28;20030;-80
2022/02/07 11:33:42;;;;;;;7.13;1.17;;;6.10;99.90;;;;;;4994164;28;20022;-78
2022/02/07 11:36:31;;;;;;;3.67;0.90;;;6.00;99.90;;;;;;4995516;28;20026;-78
2022/02/07 11:39:17;;;;;;;4.10;1.33;;;5.90;99.90;;;;;;4985855;28;20049;-79
2022/02/07 11:42:03;;;;;;;3.20;0.95;;;6.00;99.90;;;;;;4984517;28;20026;-80
2022/02/07 11:44:50;;;;;;;8.40;1.00;;;5.90;99.90;;;;;;4982489;28;20051;-79
2022/02/07 11:47:28;;;;;;;2.92;1.17;;;5.90;99.90;;;;;;4980255;28;20031;-80
2022/02/07 11:50:03;;;;;;;4.60;1.00;;;5.90;99.90;;;;;;4989018;28;20035;-79
2022/02/07 11:52:51;;;;;;;5.45;1.52;;;5.90;99.90;;;;;;4992633;28;20019;-78
2022/02/07 11:55:20;;;;;;;2.97;1.30;;;5.80;99.90;;;;;;4981289;28;20143;-78
2022/02/07 11:57:57;;;;;;;3.35;0.98;;;5.70;99.90;;;;;;4999206;28;20079;-78
2022/02/07 12:00:33;;;;;;;5.20;1.10;;;5.80;99.90;;;;;;4994492;28;20059;-79
2022/02/07 12:03:07;;;;;;;5.28;0.88;;;5.90;99.90;;;;;;4989257;28;20050;-78
2022/02/07 12:05:42;;;;;;;3.55;1.67;;;5.90;99.90;;;;;;4999188;28;20007;-77
2022/02/07 12:08:21;;;;;;;4.03;1.80;;;5.90;99.90;;;;;;4998425;28;20053;-77
2022/02/07 12:11:04;;;;;;;8.38;1.40;;;5.90;99.90;;;;;;4997153;28;20027;-79
2022/02/07 12:13:31;;;;;;;6.90;1.00;;;5.90;99.90;;;;;;4997475;28;20058;-78
2022/02/07 12:16:02;;;;;;;4.63;1.50;;;5.80;99.90;;;;;;4986176;28;20034;-78
2022/02/07 12:18:28;;;;;;;;;;;5.90;99.90;;;;;;4974966;28;20063;-78
2022/02/07 12:21:14;;;;;;;9.90;1.10;;;5.90;99.90;;;;;;4983198;28;19933;-80
2022/02/07 12:23:40;;;;;;;5.00;1.38;;;6.00;99.90;;;;;;4989976;28;20052;-78
2022/02/07 12:26:10;;;;;;;3.55;1.00;;;6.00;99.90;;;;;;4995269;28;20050;-78
2022/02/07 12:28:45;;;;;;;6.93;1.17;;;5.90;99.90;;;;;;4987967;28;20011;-77
2022/02/07 12:33:42;;;;;;;3.25;1.00;;;6.10;99.90;;;;;;4993156;28;20061;-78
2022/02/07 12:36:09;;;;;;;5.68;1.50;;;6.20;99.90;;;;;;4994956;28;20016;-78
2022/02/07 12:38:37;;;;;;;6.38;1.70;;;6.30;99.90;;;;;;4987914;28;20046;-78
2022/02/07 12:41:07;;;;;;;5.72;1.33;;;6.30;99.90;;;;;;4995783;28;20031;-79
2022/02/07 12:43:34;;;;;;;2.03;0.85;;;6.40;99.90;;;;;;4984301;28;20081;-79
2022/02/07 12:46:04;;;;;;;4.88;1.02;;;6.50;99.90;;;;;;4982333;28;20075;-78
2022/02/07 12:48:32;;;;;;;5.95;1.20;;;6.40;99.90;;;;;;4982393;28;20023;-79
2022/02/07 12:50:58;;;;;;;3.08;1.33;;;6.50;99.90;;;;;;4983571;28;20062;-79
2022/02/07 12:53:26;;;;;;;5.75;1.00;;;6.50;99.90;;;;;;4978875;28;20067;-79
2022/02/07 12:55:56;;;;;;;7.00;1.30;;;6.50;99.90;;;;;;4981780;28;20033;-79
2022/02/07 12:58:25;;;;;;;5.85;1.30;;;6.60;99.90;;;;;;4982948;28;20019;-79
2022/02/07 13:00:51;;;;;;;3.40;1.00;;;6.70;99.90;;;;;;4981996;28;20054;-79
2022/02/07 13:03:18;;;;;;;5.70;1.10;;;6.80;99.90;;;;;;4976560;28;20031;-78
2022/02/07 13:05:45;;;;;;;12.07;1.38;;;6.70;99.90;;;;;;4986517;28;20583;-78
2022/02/07 13:08:16;;;;;;;6.85;1.15;;;6.60;99.90;;;;;;4986474;28;20038;-79
2022/02/07 13:10:42;;;;;;;;;;;6.50;99.90;;;;;;4988145;28;20069;-78
2022/02/07 13:13:29;;;;;;;6.53;1.48;;;6.40;99.90;;;;;;4988586;28;19989;-79
2022/02/07 13:15:56;;;;;;;6.13;1.60;;;6.40;99.90;;;;;;4994385;28;20030;-78
2022/02/07 13:18:22;;;;;;;4.75;0.88;;;6.40;99.90;;;;;;4996645;28;20007;-78
2022/02/07 13:20:50;;;;;;;2.92;0.98;;;6.40;99.90;;;;;;4988244;28;20050;-78
2022/02/07 13:23:18;;;;;;;7.28;1.50;;;6.30;99.90;;;;;;4988506;28;20031;-78
2022/02/07 13:25:50;;;;;;;3.08;1.13;;;6.40;99.90;;;;;;4988816;28;20431;-79
2022/02/07 13:28:22;;;;;;;3.45;1.27;;;6.30;99.90;;;;;;4988510;28;20057;-80
2022/02/07 13:30:50;;;;;;;7.32;1.20;;;6.20;99.90;;;;;;4984863;28;20126;-79
2022/02/07 13:33:17;;;;;;;7.55;1.45;;;6.40;99.90;;;;;;4981319;28;20086;-80
2022/02/07 13:35:45;;;;;;;9.50;1.60;;;6.40;99.90;;;;;;4979631;28;20158;-80
2022/02/07 13:38:16;;;;;;;6.65;1.00;;;6.50;99.90;;;;;;4977978;28;20095;-78
2022/02/07 13:40:51;;;;;;;4.10;2.35;;;6.50;99.90;;;;;;4970974;28;20173;-78
2022/02/07 13:43:29;;;;;;;3.10;1.35;;;6.50;99.90;;;;;;4980609;28;20037;-80
2022/02/07 13:46:02;;;;;;;5.25;1.45;;;6.70;99.90;;;;;;4984094;28;20035;-77
2022/02/07 13:48:30;;;;;;;5.18;0.90;;;6.60;99.90;;;;;;4983697;28;20037;-79
2022/02/07 13:50:57;;;;;;;3.60;1.38;;;6.60;99.90;;;;;;4982579;28;20039;-80
2022/02/07 13:53:25;;;;;;;6.03;1.83;;;6.60;99.90;;;;;;4981852;28;20492;-78
2022/02/07 13:55:56;;;;;;;5.38;1.95;;;6.50;99.90;;;;;;4983527;28;20022;-79
2022/02/07 13:58:38;;;;;;;3.40;1.35;;;6.50;99.90;;;;;;4991235;28;20023;-79
2022/02/07 14:01:06;;;;;;;4.47;1.30;;;6.50;99.90;;;;;;4982718;28;20034;-78
2022/02/07 14:03:43;;;;;;;3.15;1.08;;;6.60;99.90;;;;;;4990001;28;20025;-78
2022/02/07 14:06:14;;;;;;;4.07;1.10;;;6.70;99.90;;;;;;4976691;28;20090;-79
2022/02/07 14:08:49;;;;;;;5.78;1.50;;;6.70;99.90;;;;;;4978323;28;20078;-81
2022/02/07 14:11:22;;;;;;;6.13;1.02;;;6.80;99.90;;;;;;4985637;28;20031;-79
2022/02/07 14:13:51;;;;;;;4.60;1.27;;;6.90;99.90;;;;;;4976355;28;20376;-78
2022/02/07 14:16:18;;;;;;;3.30;0.80;;;6.80;99.90;;;;;;4984855;28;20102;-79
2022/02/07 14:18:47;;;;;;;3.63;1.70;;;6.80;99.90;;;;;;4984907;28;20087;-78
2022/02/07 14:21:15;;;;;;;2.58;1.13;;;6.80;99.90;;;;;;4983414;28;20487;-78
2022/02/07 14:23:45;;;;;;;4.13;1.02;;;6.60;99.90;;;;;;4984927;28;20031;-77
2022/02/07 14:26:15;;;;;;;3.22;1.40;;;6.60;99.90;;;;;;4987106;28;20026;-78
2022/02/07 14:28:51;;;;;;;5.18;1.13;;;6.50;99.90;;;;;;4989835;28;20397;-78
2022/02/07 14:31:18;;;;;;;0.75;0.68;;;6.60;99.90;;;;;;4985331;28;20030;-78
2022/02/07 14:33:44;;;;;;;2.78;0.82;;;6.40;99.90;;;;;;4985180;28;20081;-78
2022/02/07 14:36:10;;;;;;;6.13;1.10;;;6.40;99.90;;;;;;4979646;28;20026;-80
2022/02/07 14:38:36;;;;;;;7.82;1.60;;;6.50;99.90;;;;;;4985810;28;20055;-80
2022/02/07 14:41:05;;;;;;;3.42;1.10;;;6.50;99.90;;;;;;4986500;28;20033;-79
2022/02/07 14:43:33;;;;;;;5.70;1.17;;;6.40;99.90;;;;;;4965516;28;20054;-77
2022/02/07 14:48:26;;;;;;;5.72;1.45;;;6.40;99.90;;;;;;4990488;28;20023;-78
2022/02/07 14:50:52;;;;;;;2.50;0.80;;;6.50;99.90;;;;;;4987078;28;20428;-79
2022/02/07 14:53:18;;;;;;;6.72;1.20;;;6.50;99.90;;;;;;4984730;28;20090;-81
2022/02/07 14:55:44;;;;;;;3.38;1.05;;;6.50;99.90;;;;;;4985596;28;20125;-78
2022/02/07 14:58:10;;;;;;;2.28;1.15;;;6.50;99.90;;;;;;4989694;28;20054;-78
2022/02/07 15:00:36;;;;;;;5.38;1.73;;;6.70;99.90;;;;;;4989785;28;20059;-77
2022/02/07 15:03:04;;;;;;;6.10;2.22;;;6.70;99.90;;;;;;4992944;28;20007;-80
2022/02/07 15:05:31;;;;;;;8.73;1.17;;;6.50;99.90;;;;;;4994825;28;20026;-77
2022/02/07 15:07:58;;;;;;;7.63;1.75;;;6.40;99.90;;;;;;4987528;28;20038;-79
2022/02/07 15:10:24;;;;;;;4.22;1.00;;;6.30;99.90;;;;;;4989165;28;20034;-79
2022/02/07 15:12:50;;;;;;;3.15;1.73;;;6.20;99.90;;;;;;4988711;28;20058;-78
2022/02/07 15:15:16;;;;;;;3.83;1.35;;;6.10;99.90;;;;;;4981310;28;20034;-78
2022/02/07 15:17:42;;;;;;;3.88;1.65;;;5.90;99.90;;;;;;4983198;28;20074;-78
2022/02/07 15:20:09;;;;;;;7.63;1.80;;;5.90;99.90;;;;;;4982064;28;20369;-78
2022/02/07 15:22:36;;;;;;;4.25;1.38;;;5.80;99.90;;;;;;4974005;28;20027;-80
2022/02/07 15:25:02;;;;;;;6.97;2.53;;;5.80;99.90;;;;;;4980534;28;20023;-78
2022/02/07 15:27:29;;;;;;;5.13;1.23;;;5.70;99.90;;;;;;4977804;28;20027;-78
2022/02/07 15:29:56;;;;;;;9.35;1.48;;;5.70;99.90;;;;;;4981268;28;20023;-79
2022/02/07 15:32:31;;;;;;;8.05;1.75;;;5.70;99.90;;;;;;4979811;28;20023;-77
2022/02/07 15:35:00;;;;;;;5.97;1.23;;;5.70;99.90;;;;;;4988302;28;20027;-79
2022/02/07 15:37:28;;;;;;;4.00;1.58;;;5.60;99.90;;;;;;4984865;28;20103;-77
2022/02/07 15:39:54;;;;;;;7.10;2.17;;;5.50;99.90;;;;;;4983792;28;20038;-78
2022/02/07 15:42:20;;;;;;;9.45;1.77;;;5.50;99.90;;;;;;4957825;29;20111;-78
2022/02/07 15:44:47;;;;;;;4.40;1.23;;;5.50;99.90;;;;;;4981126;28;20110;-79
2022/02/07 15:47:13;;;;;;;8.00;2.20;;;5.40;99.90;;;;;;4986675;28;20014;-78
2022/02/07 15:49:38;;;;;;;7.50;1.20;;;5.40;99.90;;;;;;4982404;28;20113;-80
2022/02/07 15:52:05;;;;;;;5.75;2.50;;;5.40;99.90;;;;;;4980280;28;20039;-77